Time;durP1;ratioP1;P1;durP2;ratioP2;P2;SDS_P1;SDS_P2;PMS_P1;PMS_P2;Temp;Humidity;BMP_temperature;BMP_pressure;BME280_temperature;BME280_humidity;BME280_pressure;Samples;Min_cycle;Max_cycle;Signal;HPM_P1;HPM_P2
2022/07/02 00:02:07;;;;;;;7.67;2.97;;;14.30;99.90;;;;;;5079652;28;20171;-85
2022/07/02 00:04:33;;;;;;;4.53;2.73;;;14.30;99.90;;;;;;5080218;28;20261;-84
2022/07/02 00:07:00;;;;;;;7.23;3.00;;;14.30;99.90;;;;;;5083361;28;20212;-86
2022/07/02 00:09:29;;;;;;;7.47;3.00;;;14.20;99.90;;;;;;5082719;28;20541;-85
2022/07/02 00:11:59;;;;;;;7.70;2.80;;;14.30;99.90;;;;;;5081401;28;20225;-86
2022/07/02 00:14:25;;;;;;;6.13;3.10;;;14.20;99.90;;;;;;5081877;28;20215;-86
2022/07/02 00:16:53;;;;;;;8.40;2.80;;;14.40;99.90;;;;;;5081952;28;20203;-86
2022/07/02 00:19:20;;;;;;;6.67;2.97;;;14.40;99.90;;;;;;5081772;28;20322;-87
2022/07/02 00:21:46;;;;;;;8.70;3.00;;;14.30;99.90;;;;;;5078730;28;20290;-86
2022/07/02 00:24:12;;;;;;;6.63;3.07;;;14.10;99.90;;;;;;5078049;28;20203;-86
2022/07/02 00:26:39;;;;;;;8.93;3.27;;;14.10;99.90;;;;;;5078665;28;20568;-85
2022/07/02 00:29:19;;;;;;;5.07;2.83;;;14.00;99.90;;;;;;5078107;28;20195;-85
2022/07/02 00:31:46;;;;;;;7.23;3.03;;;14.10;99.90;;;;;;5078379;28;20167;-85
2022/07/02 00:34:12;;;;;;;10.40;3.47;;;14.10;99.90;;;;;;5077644;28;20205;-86
2022/07/02 00:36:38;;;;;;;3.83;2.97;;;14.10;99.90;;;;;;5077776;28;20183;-85
2022/07/02 00:39:03;;;;;;;4.07;3.17;;;13.90;99.90;;;;;;5077611;28;20176;-86
2022/07/02 00:41:30;;;;;;;7.73;3.90;;;13.80;99.90;;;;;;5077136;28;20226;-87
2022/07/02 00:43:56;;;;;;;6.63;3.90;;;13.70;99.90;;;;;;5076956;28;20686;-85
2022/07/02 00:46:23;;;;;;;5.23;3.43;;;13.90;99.90;;;;;;5077501;28;20199;-86
2022/07/02 00:48:49;;;;;;;8.40;3.90;;;13.90;99.90;;;;;;5076788;28;20171;-85
2022/07/02 00:51:15;;;;;;;5.80;3.90;;;13.80;99.90;;;;;;5076339;28;20243;-86
2022/07/02 00:53:40;;;;;;;5.07;3.60;;;13.90;99.90;;;;;;5076704;28;20192;-86
2022/07/02 00:56:06;;;;;;;5.70;3.80;;;13.80;99.90;;;;;;5076869;28;20644;-85
2022/07/02 00:58:32;;;;;;;9.13;4.03;;;13.80;99.90;;;;;;5077021;28;20649;-85
2022/07/02 01:00:59;;;;;;;6.73;3.63;;;13.70;99.90;;;;;;5076593;28;20659;-85
2022/07/02 01:03:26;;;;;;;7.60;4.27;;;13.80;99.90;;;;;;5075927;28;20207;-85
2022/07/02 01:05:52;;;;;;;10.20;4.20;;;13.70;99.90;;;;;;5075503;28;20658;-85
2022/07/02 01:11:07;;;;;;;7.07;4.43;;;13.80;99.90;;;;;;5077595;28;20539;-84
2022/07/02 01:13:34;;;;;;;11.40;4.40;;;13.80;99.90;;;;;;5075259;28;20206;-84
2022/07/02 01:16:01;;;;;;;10.47;4.77;;;13.90;99.90;;;;;;5075668;28;20261;-84
2022/07/02 01:18:26;;;;;;;8.87;4.17;;;13.80;99.90;;;;;;5075871;28;20174;-84
2022/07/02 01:20:52;;;;;;;7.17;4.20;;;13.80;99.90;;;;;;5075799;28;20320;-84
2022/07/02 01:23:18;;;;;;;7.33;4.50;;;13.80;99.90;;;;;;5075321;28;20203;-84
2022/07/02 01:25:51;;;;;;;9.47;4.60;;;13.70;99.90;;;;;;5075414;28;20667;-83
2022/07/02 01:28:18;;;;;;;9.83;4.20;;;13.70;99.90;;;;;;5075689;28;20639;-84
2022/07/02 01:30:44;;;;;;;6.77;4.20;;;13.70;99.90;;;;;;5077236;28;20174;-83
2022/07/02 01:33:10;;;;;;;9.77;4.67;;;13.80;99.90;;;;;;5074580;28;20184;-84
2022/07/02 01:35:36;;;;;;;5.23;4.20;;;13.70;99.90;;;;;;5075557;28;20218;-84
2022/07/02 01:38:01;;;;;;;4.33;3.80;;;13.60;99.90;;;;;;5075438;28;20235;-84
2022/07/02 01:40:27;;;;;;;6.90;4.47;;;13.40;99.90;;;;;;5075245;28;20226;-84
2022/07/02 01:42:53;;;;;;;6.50;4.60;;;13.60;99.90;;;;;;5074432;28;20195;-84
2022/07/02 01:45:18;;;;;;;7.03;4.53;;;13.60;99.90;;;;;;5074756;28;20208;-84
2022/07/02 01:47:44;;;;;;;9.53;4.73;;;13.60;99.90;;;;;;5075345;28;20178;-83
2022/07/02 01:50:10;;;;;;;11.07;5.47;;;13.60;99.90;;;;;;5074919;28;20321;-83
2022/07/02 01:52:35;;;;;;;12.73;5.17;;;13.70;99.90;;;;;;5074569;28;20207;-85
2022/07/02 01:55:01;;;;;;;7.93;5.00;;;13.60;99.90;;;;;;5074128;28;20552;-87
2022/07/02 01:57:33;;;;;;;9.53;5.43;;;13.60;99.90;;;;;;5074605;28;20659;-84
2022/07/02 01:59:59;;;;;;;11.23;5.20;;;13.60;99.90;;;;;;5073903;28;20171;-85
2022/07/02 02:02:25;;;;;;;7.00;4.93;;;13.60;99.90;;;;;;5074068;28;20195;-85
2022/07/02 02:04:51;;;;;;;8.10;4.93;;;13.50;99.90;;;;;;5074067;28;20175;-85
2022/07/02 02:07:17;;;;;;;8.03;5.30;;;13.60;99.90;;;;;;5074574;28;20639;-86
2022/07/02 02:09:42;;;;;;;9.80;5.27;;;13.50;99.90;;;;;;5074291;28;20505;-84
2022/07/02 02:12:08;;;;;;;13.30;5.90;;;13.50;99.90;;;;;;5074571;28;20175;-84
2022/07/02 02:14:35;;;;;;;8.33;5.37;;;13.50;99.90;;;;;;5074454;28;20304;-84
2022/07/02 02:17:00;;;;;;;12.23;5.73;;;13.50;99.90;;;;;;5074361;28;20179;-84
2022/07/02 02:19:26;;;;;;;11.10;6.67;;;13.60;99.90;;;;;;5074279;28;20187;-84
2022/07/02 02:21:56;;;;;;;8.17;5.03;;;13.60;99.90;;;;;;5074385;28;20182;-84
2022/07/02 02:24:21;;;;;;;6.30;4.60;;;13.50;99.90;;;;;;5073882;28;20256;-84
2022/07/02 02:26:47;;;;;;;5.27;4.73;;;13.60;99.90;;;;;;5074317;28;20228;-84
2022/07/02 02:29:13;;;;;;;8.63;4.90;;;13.40;99.90;;;;;;5073963;28;20172;-84
2022/07/02 02:31:38;;;;;;;9.47;4.93;;;13.30;99.90;;;;;;5073465;28;20177;-84
2022/07/02 02:34:04;;;;;;;8.83;5.53;;;13.10;99.90;;;;;;5074196;28;20226;-83
2022/07/02 02:36:30;;;;;;;8.70;5.53;;;13.20;99.90;;;;;;5074664;28;20175;-83
2022/07/02 02:38:56;;;;;;;12.47;5.83;;;13.30;99.90;;;;;;5074362;28;20583;-84
2022/07/02 02:41:21;;;;;;;11.43;6.10;;;13.40;99.90;;;;;;5073450;28;20170;-83
2022/07/02 02:43:47;;;;;;;11.60;5.83;;;13.50;99.90;;;;;;5074443;28;20206;-84
2022/07/02 02:46:13;;;;;;;7.80;5.50;;;13.40;99.90;;;;;;5075905;28;20198;-84
2022/07/02 02:48:39;;;;;;;10.10;5.70;;;13.50;99.90;;;;;;5074874;28;20196;-83
2022/07/02 02:51:06;;;;;;;10.63;5.60;;;13.50;99.90;;;;;;5073894;28;20738;-86
2022/07/02 02:53:32;;;;;;;9.57;5.73;;;13.40;99.90;;;;;;5074340;28;20201;-85
2022/07/02 02:55:59;;;;;;;7.60;5.03;;;13.30;99.90;;;;;;5074618;28;20178;-85
2022/07/02 02:58:25;;;;;;;9.80;5.20;;;13.30;99.90;;;;;;5073842;28;20178;-84
2022/07/02 03:00:51;;;;;;;9.10;5.63;;;13.30;99.90;;;;;;5072316;28;20171;-85
2022/07/02 03:03:17;;;;;;;16.73;6.10;;;13.30;99.90;;;;;;5074101;28;20247;-86
2022/07/02 03:05:43;;;;;;;7.17;5.70;;;13.30;99.90;;;;;;5073205;28;20199;-86
2022/07/02 03:08:08;;;;;;;15.60;6.53;;;13.30;99.90;;;;;;5073242;28;20170;-85
2022/07/02 03:10:34;;;;;;;15.13;6.30;;;13.30;99.90;;;;;;5072672;28;20170;-85
2022/07/02 03:13:00;;;;;;;7.10;6.20;;;13.30;99.90;;;;;;5072129;28;20736;-85
2022/07/02 03:15:26;;;;;;;10.10;5.87;;;13.20;99.90;;;;;;5073730;28;20174;-86
2022/07/02 03:17:52;;;;;;;10.67;6.27;;;13.20;99.90;;;;;;5075237;28;20226;-85
2022/07/02 03:20:17;;;;;;;14.00;6.90;;;13.00;99.90;;;;;;5072867;28;20176;-85
2022/07/02 03:22:43;;;;;;;11.17;5.77;;;13.20;99.90;;;;;;5072249;28;20200;-85
2022/07/02 03:25:09;;;;;;;13.00;6.13;;;12.90;99.90;;;;;;5072607;28;20198;-84
2022/07/02 03:27:35;;;;;;;14.83;6.00;;;13.10;99.90;;;;;;5072681;28;20174;-85
2022/07/02 03:30:00;;;;;;;13.60;5.67;;;13.10;99.90;;;;;;5072405;28;20162;-84
2022/07/02 03:32:28;;;;;;;8.80;6.13;;;13.10;99.90;;;;;;5072371;28;20213;-84
2022/07/02 03:34:55;;;;;;;8.70;5.50;;;13.30;99.90;;;;;;5072262;28;20174;-85
2022/07/02 03:37:23;;;;;;;11.17;6.07;;;13.30;99.90;;;;;;5072488;28;20229;-85
2022/07/02 03:39:48;;;;;;;11.43;5.93;;;13.20;99.90;;;;;;5071992;28;20582;-85
2022/07/02 03:42:14;;;;;;;16.43;6.53;;;13.30;99.90;;;;;;5071080;28;20266;-86
2022/07/02 03:44:40;;;;;;;13.17;5.70;;;13.30;99.90;;;;;;5071407;28;20172;-85
2022/07/02 03:47:06;;;;;;;8.60;5.57;;;13.40;99.90;;;;;;5072503;28;20206;-85
2022/07/02 03:49:31;;;;;;;9.50;5.47;;;13.40;99.90;;;;;;5071997;28;20165;-85
2022/07/02 03:51:57;;;;;;;10.07;5.30;;;13.40;99.90;;;;;;5071392;28;20169;-84
2022/07/02 03:54:22;;;;;;;11.43;6.10;;;13.30;99.90;;;;;;5071696;28;20170;-85
2022/07/02 03:56:48;;;;;;;11.97;5.90;;;13.20;99.90;;;;;;5073006;28;20174;-85
2022/07/02 03:59:14;;;;;;;11.87;5.87;;;13.30;99.90;;;;;;5075409;28;20170;-85
2022/07/02 04:01:39;;;;;;;9.33;5.90;;;13.40;99.90;;;;;;5074912;28;20262;-84
2022/07/02 04:04:05;;;;;;;13.07;6.13;;;13.40;99.90;;;;;;5074320;28;20203;-85
2022/07/02 04:06:30;;;;;;;13.73;5.93;;;13.30;99.90;;;;;;5076026;28;20184;-86
2022/07/02 04:08:56;;;;;;;9.97;5.77;;;13.30;99.90;;;;;;5074946;28;20670;-85
2022/07/02 04:11:22;;;;;;;8.07;5.87;;;13.40;99.90;;;;;;5074029;28;20176;-85
2022/07/02 04:13:47;;;;;;;10.93;6.23;;;13.20;99.90;;;;;;5074038;28;20205;-84
2022/07/02 04:16:13;;;;;;;6.73;5.20;;;13.20;99.90;;;;;;5074181;28;20176;-85
2022/07/02 04:18:38;;;;;;;10.77;5.70;;;13.40;99.90;;;;;;5074545;28;20172;-85
2022/07/02 04:21:04;;;;;;;9.77;5.87;;;13.50;99.90;;;;;;5074019;28;20175;-85
2022/07/02 04:23:30;;;;;;;11.70;5.73;;;13.60;99.90;;;;;;5073877;28;20199;-85
2022/07/02 04:25:55;;;;;;;9.77;5.13;;;13.70;99.90;;;;;;5074095;28;20707;-85
2022/07/02 04:28:21;;;;;;;9.90;5.50;;;13.70;99.90;;;;;;5074799;28;20544;-85
2022/07/02 04:30:47;;;;;;;10.43;5.00;;;13.70;99.90;;;;;;5073970;28;20186;-85
2022/07/02 04:33:12;;;;;;;12.20;4.90;;;14.00;99.90;;;;;;5074499;28;20607;-83
2022/07/02 04:35:38;;;;;;;12.07;5.13;;;14.20;99.90;;;;;;5074936;28;20178;-83
2022/07/02 04:38:04;;;;;;;11.20;5.17;;;14.30;99.90;;;;;;5074872;28;20541;-83
2022/07/02 04:40:30;;;;;;;10.20;4.33;;;14.70;99.90;;;;;;5075844;28;20176;-84
2022/07/02 04:42:56;;;;;;;8.33;3.70;;;15.20;99.90;;;;;;5075502;28;20250;-84
2022/07/02 04:45:21;;;;;;;8.47;3.97;;;15.50;99.90;;;;;;5076838;28;20195;-84
2022/07/02 04:47:47;;;;;;;7.90;3.60;;;15.90;99.90;;;;;;5075693;28;20192;-85
2022/07/02 04:50:13;;;;;;;8.13;3.43;;;16.00;99.90;;;;;;5075138;28;20657;-85
2022/07/02 04:52:38;;;;;;;8.20;3.37;;;16.30;99.90;;;;;;5076129;28;20184;-85
2022/07/02 04:55:04;;;;;;;7.33;3.40;;;16.60;99.90;;;;;;5076471;28;20548;-85
2022/07/02 04:57:30;;;;;;;5.93;3.20;;;16.80;99.90;;;;;;5075806;28;20192;-85
2022/07/02 04:59:55;;;;;;;7.40;3.13;;;16.80;99.90;;;;;;5076758;28;20622;-85
2022/07/02 05:02:21;;;;;;;8.50;3.17;;;16.90;99.90;;;;;;5075908;28;20193;-85
2022/07/02 05:04:47;;;;;;;5.20;3.05;;;17.00;99.90;;;;;;5075315;28;20632;-85
2022/07/02 05:07:12;;;;;;;8.75;3.30;;;16.80;99.90;;;;;;5075681;28;20294;-85
2022/07/02 05:09:38;;;;;;;5.68;2.95;;;16.60;99.90;;;;;;5074594;28;20226;-86
2022/07/02 05:12:04;;;;;;;6.28;3.75;;;16.40;99.90;;;;;;5073043;28;20176;-86
2022/07/02 05:14:29;;;;;;;5.25;3.20;;;16.60;99.90;;;;;;5073300;28;20172;-86
2022/07/02 05:16:55;;;;;;;10.15;3.00;;;16.90;99.90;;;;;;5073878;28;20663;-86
2022/07/02 05:19:21;;;;;;;9.63;3.60;;;17.20;99.90;;;;;;5073256;28;20537;-87
2022/07/02 05:21:46;;;;;;;6.13;3.05;;;17.40;99.90;;;;;;5074379;28;20262;-86
2022/07/02 05:24:12;;;;;;;4.95;2.92;;;17.30;99.90;;;;;;5073112;28;20680;-86
2022/07/02 05:26:37;;;;;;;5.22;2.90;;;17.30;99.90;;;;;;5073689;28;20188;-87
2022/07/02 05:29:03;;;;;;;5.20;3.00;;;17.60;99.90;;;;;;5073485;28;20566;-86
2022/07/02 05:31:32;;;;;;;5.32;2.70;;;17.70;99.90;;;;;;5073479;28;20180;-85
2022/07/02 05:33:57;;;;;;;3.72;2.80;;;17.60;99.90;;;;;;5074255;28;20193;-85
2022/07/02 05:36:23;;;;;;;5.07;3.20;;;18.00;99.90;;;;;;5074622;28;20218;-85
2022/07/02 05:38:49;;;;;;;6.10;3.20;;;18.00;99.90;;;;;;5074815;28;20179;-85
2022/07/02 05:41:14;;;;;;;7.22;2.58;;;18.50;99.90;;;;;;5073580;28;20175;-85
2022/07/02 05:43:40;;;;;;;8.68;2.80;;;18.40;99.90;;;;;;5078856;28;20192;-83
2022/07/02 05:46:05;;;;;;;4.50;2.65;;;18.60;99.90;;;;;;5084066;28;20200;-82
2022/07/02 05:48:31;;;;;;;7.15;2.63;;;18.90;99.90;;;;;;5081321;28;20685;-83
2022/07/02 05:50:57;;;;;;;5.43;2.70;;;19.00;99.90;;;;;;5082490;28;20177;-83
2022/07/02 05:53:22;;;;;;;5.97;2.75;;;19.30;99.90;;;;;;5080219;28;20196;-83
2022/07/02 05:55:48;;;;;;;6.32;2.65;;;19.70;99.90;;;;;;5082010;28;20176;-84
2022/07/02 05:58:13;;;;;;;5.97;2.50;;;20.00;99.90;;;;;;5081766;28;20664;-83
2022/07/02 06:00:39;;;;;;;8.82;2.97;;;19.80;99.90;;;;;;5081432;28;20222;-83
2022/07/02 06:03:05;;;;;;;6.63;2.72;;;20.10;99.90;;;;;;5081587;28;20733;-82
2022/07/02 06:08:15;;;;;;;9.23;2.80;;;20.30;99.90;;;;;;5082502;28;20282;-83
2022/07/02 06:10:41;;;;;;;6.90;2.67;;;20.70;99.90;;;;;;5081572;28;20180;-83
2022/07/02 06:13:07;;;;;;;9.20;2.88;;;20.80;99.90;;;;;;5079802;28;20209;-83
2022/07/02 06:15:32;;;;;;;4.50;2.60;;;21.10;99.90;;;;;;5081066;28;20230;-83
2022/07/02 06:18:00;;;;;;;5.35;2.20;;;21.20;99.90;;;;;;5081705;28;20169;-83
2022/07/02 06:20:26;;;;;;;9.65;3.00;;;21.70;99.90;;;;;;5079509;28;20176;-83
2022/07/02 06:22:51;;;;;;;7.53;2.38;;;21.30;99.90;;;;;;5079956;28;20197;-82
2022/07/02 06:25:17;;;;;;;7.25;2.38;;;21.20;99.90;;;;;;5076960;28;20215;-82
2022/07/02 06:27:43;;;;;;;8.93;2.30;;;22.00;99.90;;;;;;5076157;28;20168;-82
2022/07/02 06:30:09;;;;;;;6.30;2.20;;;21.70;99.90;;;;;;5075994;28;20214;-82
2022/07/02 06:32:36;;;;;;;6.35;2.35;;;21.90;99.90;;;;;;5075564;28;20266;-82
2022/07/02 06:35:03;;;;;;;8.25;2.28;;;22.10;99.90;;;;;;5075101;28;20226;-80
2022/07/02 06:37:28;;;;;;;5.18;2.25;;;22.00;99.90;;;;;;5074699;28;20173;-80
2022/07/02 06:39:54;;;;;;;5.93;2.15;;;22.40;99.90;;;;;;5074681;28;20546;-80
2022/07/02 06:42:20;;;;;;;7.07;1.83;;;22.60;99.10;;;;;;5074011;28;20603;-81
2022/07/02 06:44:47;;;;;;;3.97;1.90;;;22.40;98.70;;;;;;5075300;28;20273;-81
2022/07/02 06:47:16;;;;;;;5.30;2.33;;;22.50;98.00;;;;;;5076389;28;20214;-81
2022/07/02 06:49:42;;;;;;;6.07;1.75;;;23.10;97.30;;;;;;5076270;28;20233;-80
2022/07/02 06:52:08;;;;;;;6.95;1.70;;;22.10;97.60;;;;;;5076142;28;20175;-81
2022/07/02 06:54:35;;;;;;;5.40;1.92;;;22.70;97.80;;;;;;5076228;28;20172;-80
2022/07/02 06:57:01;;;;;;;5.93;1.70;;;23.40;97.20;;;;;;5078995;28;20173;-80
2022/07/02 06:59:27;;;;;;;4.20;1.60;;;23.80;95.90;;;;;;5075779;28;20641;-80
2022/07/02 07:01:52;;;;;;;3.25;1.73;;;24.00;94.40;;;;;;5076787;28;20268;-81
2022/07/02 07:04:18;;;;;;;4.70;1.70;;;23.80;95.00;;;;;;5077276;28;20540;-81
2022/07/02 07:06:49;;;;;;;2.85;1.63;;;24.20;93.90;;;;;;5076871;28;20196;-81
2022/07/02 07:09:14;;;;;;;6.03;1.58;;;23.00;95.40;;;;;;5076374;28;20176;-81
2022/07/02 07:11:40;;;;;;;7.05;1.52;;;23.40;95.80;;;;;;5077679;28;20525;-81
2022/07/02 07:14:06;;;;;;;4.80;1.80;;;23.90;94.00;;;;;;5073732;28;20209;-80
2022/07/02 07:16:31;;;;;;;6.68;1.88;;;23.20;94.80;;;;;;5077038;28;20184;-80
2022/07/02 07:19:04;;;;;;;6.70;2.10;;;23.80;93.50;;;;;;5072758;28;20172;-80
2022/07/02 07:21:30;;;;;;;5.03;1.67;;;24.00;94.30;;;;;;5073008;28;20196;-80
2022/07/02 07:23:56;;;;;;;4.75;2.10;;;24.40;93.70;;;;;;5072805;28;20283;-80
2022/07/02 07:26:21;;;;;;;4.45;1.90;;;24.60;92.70;;;;;;5073429;28;20224;-79
2022/07/02 07:28:47;;;;;;;5.43;1.88;;;24.50;93.20;;;;;;5075644;28;20185;-80
2022/07/02 07:31:13;;;;;;;4.15;1.60;;;24.60;92.50;;;;;;5075089;28;20164;-80
2022/07/02 07:33:40;;;;;;;4.38;1.77;;;25.00;92.60;;;;;;5071193;28;20196;-80
2022/07/02 07:36:05;;;;;;;2.90;1.52;;;24.90;92.40;;;;;;5072460;28;20545;-80
2022/07/02 07:38:31;;;;;;;4.15;1.42;;;24.50;92.80;;;;;;5075616;28;20199;-79
2022/07/02 07:40:57;;;;;;;6.43;1.73;;;25.30;91.80;;;;;;5076022;28;20180;-80
2022/07/02 07:43:23;;;;;;;3.60;1.75;;;25.10;91.40;;;;;;5074221;28;20222;-81
2022/07/02 07:45:48;;;;;;;2.45;1.35;;;25.10;91.40;;;;;;5075128;28;20559;-81
2022/07/02 07:48:14;;;;;;;2.55;1.42;;;25.80;91.50;;;;;;5074986;28;20169;-80
2022/07/02 07:50:40;;;;;;;9.18;1.38;;;25.30;90.80;;;;;;5075161;28;20215;-80
2022/07/02 07:53:05;;;;;;;2.47;1.40;;;24.80;91.60;;;;;;5075407;28;20667;-80
2022/07/02 07:55:31;;;;;;;3.00;1.40;;;25.00;91.60;;;;;;5075346;28;20267;-80
2022/07/02 07:57:57;;;;;;;4.57;1.08;;;25.20;90.90;;;;;;5075082;28;20172;-79
2022/07/02 08:00:23;;;;;;;4.60;1.25;;;25.50;90.50;;;;;;5077267;22;20232;-83
2022/07/02 08:02:48;;;;;;;4.82;1.70;;;25.60;89.70;;;;;;5030897;28;20264;-82
2022/07/02 08:05:14;;;;;;;5.95;1.23;;;25.80;88.90;;;;;;5033918;28;20585;-82
2022/07/02 08:07:40;;;;;;;3.33;1.30;;;25.80;87.50;;;;;;5032446;28;20224;-81
2022/07/02 08:10:07;;;;;;;3.03;1.23;;;25.60;90.70;;;;;;5033977;28;20174;-81
2022/07/02 08:12:33;;;;;;;2.60;1.73;;;26.20;88.60;;;;;;5034350;28;20170;-83
2022/07/02 08:15:01;;;;;;;2.70;1.30;;;26.40;86.50;;;;;;5057995;23;20232;-79
2022/07/02 08:17:29;;;;;;;3.92;1.05;;;26.10;86.90;;;;;;5033749;28;20564;-79
2022/07/02 08:19:57;;;;;;;5.10;1.27;;;25.30;88.30;;;;;;5037823;28;20196;-78
2022/07/02 08:22:23;;;;;;;1.92;1.02;;;25.90;90.10;;;;;;5033478;28;20884;-78
2022/07/02 08:24:49;;;;;;;4.57;1.10;;;26.60;87.00;;;;;;5033144;28;20178;-80
2022/07/02 08:27:15;;;;;;;1.92;1.30;;;25.80;86.70;;;;;;5034082;28;20210;-81
2022/07/02 08:29:41;;;;;;;8.40;1.20;;;26.10;85.90;;;;;;5034568;28;20186;-80
2022/07/02 08:32:07;;;;;;;2.45;1.20;;;26.00;85.10;;;;;;5033124;28;20173;-77
2022/07/02 08:34:34;;;;;;;2.72;1.20;;;26.40;86.40;;;;;;5033242;28;20174;-76
2022/07/02 08:37:00;;;;;;;3.55;1.20;;;26.40;83.20;;;;;;5037273;28;20200;-78
2022/07/02 08:39:26;;;;;;;2.38;1.08;;;25.80;86.00;;;;;;5033244;28;20177;-79
2022/07/02 08:41:57;;;;;;;6.93;1.27;;;25.20;86.00;;;;;;5032900;28;20189;-77
2022/07/02 08:44:24;;;;;;;5.93;1.25;;;24.90;88.30;;;;;;5034657;28;20198;-78
2022/07/02 08:46:51;;;;;;;4.72;1.25;;;25.30;84.10;;;;;;5033846;28;20630;-77
2022/07/02 08:49:21;;;;;;;4.50;1.35;;;25.80;85.00;;;;;;5033779;28;20178;-77
2022/07/02 08:54:21;;;;;;;2.03;1.30;;;26.50;85.20;;;;;;5035209;28;20249;-80
2022/07/02 08:56:47;;;;;;;4.88;1.60;;;26.00;84.00;;;;;;5034125;28;20224;-79
2022/07/02 08:59:12;;;;;;;4.60;1.20;;;26.00;83.60;;;;;;5038451;28;20543;-80
2022/07/02 09:01:38;;;;;;;2.80;1.20;;;26.20;82.70;;;;;;5043683;28;20208;-79
2022/07/02 09:04:04;;;;;;;3.55;1.25;;;26.10;84.40;;;;;;5044362;28;20223;-78
2022/07/02 09:06:32;;;;;;;2.05;1.27;;;26.30;83.90;;;;;;5053896;28;20193;-82
2022/07/02 09:08:58;;;;;;;3.38;1.10;;;26.30;83.20;;;;;;5058159;28;20176;-81
2022/07/02 09:11:24;;;;;;;4.45;1.23;;;26.00;83.10;;;;;;5042938;28;20174;-81
2022/07/02 09:13:51;;;;;;;4.93;1.65;;;25.60;83.40;;;;;;5039021;28;20225;-81
2022/07/02 09:16:17;;;;;;;3.60;1.20;;;25.00;84.00;;;;;;5044337;28;20169;-81
2022/07/02 09:18:44;;;;;;;3.10;1.25;;;25.20;83.80;;;;;;5056313;28;20188;-80
2022/07/02 09:21:09;;;;;;;5.63;1.20;;;25.70;85.10;;;;;;5056613;28;20191;-79
2022/07/02 09:23:44;;;;;;;3.45;1.58;;;26.40;80.20;;;;;;5057486;28;20677;-80
2022/07/02 09:26:17;;;;;;;3.45;1.00;;;26.00;79.10;;;;;;5054134;28;20208;-79
2022/07/02 09:29:01;;;;;;;1.40;1.00;;;26.10;82.70;;;;;;5054454;28;20222;-80
2022/07/02 09:31:28;;;;;;;4.63;1.02;;;26.90;79.90;;;;;;5053896;28;20170;-81
2022/07/02 09:33:54;;;;;;;3.95;1.20;;;25.80;81.80;;;;;;5042673;28;20191;-81
2022/07/02 09:36:21;;;;;;;4.30;1.10;;;26.00;80.50;;;;;;5033282;28;20197;-80
2022/07/02 09:38:53;;;;;;;2.08;1.48;;;26.00;79.30;;;;;;5033158;28;20178;-81
2022/07/02 09:41:21;;;;;;;1.33;1.15;;;25.70;78.60;;;;;;5033967;28;20185;-81
2022/07/02 09:43:58;;;;;;;1.15;0.80;;;25.50;81.50;;;;;;5032930;28;20277;-80
2022/07/02 09:46:24;;;;;;;4.35;1.40;;;26.50;80.10;;;;;;5033055;28;20200;-80
2022/07/02 09:48:50;;;;;;;1.85;1.10;;;26.70;80.60;;;;;;5033446;28;20178;-81
2022/07/02 09:51:16;;;;;;;2.58;1.10;;;26.20;80.40;;;;;;5032769;28;20166;-81
2022/07/02 09:53:52;;;;;;;2.05;1.17;;;27.10;81.30;;;;;;5033298;28;20194;-82
2022/07/02 09:56:19;;;;;;;2.47;1.02;;;25.90;76.70;;;;;;5033436;28;20184;-81
2022/07/02 09:58:45;;;;;;;8.40;1.20;;;25.90;78.00;;;;;;5033180;28;20182;-80
2022/07/02 10:01:11;;;;;;;1.02;1.02;;;25.80;80.20;;;;;;5033795;28;20221;-79
2022/07/02 10:03:54;;;;;;;2.40;1.00;;;25.30;79.20;;;;;;5032931;28;20244;-80
2022/07/02 10:06:20;;;;;;;7.15;1.30;;;24.80;81.60;;;;;;5027931;28;20200;-80
2022/07/02 10:08:47;;;;;;;4.43;1.45;;;25.80;78.90;;;;;;5051686;28;20181;-79
2022/07/02 10:11:15;;;;;;;3.72;1.10;;;25.60;77.60;;;;;;5053538;28;20166;-82
2022/07/02 10:13:41;;;;;;;4.07;1.20;;;25.80;79.30;;;;;;5053480;28;20223;-82
2022/07/02 10:16:20;;;;;;;3.03;1.15;;;25.50;77.20;;;;;;5053834;28;20165;-82
2022/07/02 10:18:46;;;;;;;2.28;1.00;;;25.40;78.80;;;;;;5054143;28;20172;-82
2022/07/02 10:21:14;;;;;;;2.05;1.00;;;26.10;76.40;;;;;;5053868;28;20173;-81
2022/07/02 10:23:43;;;;;;;4.07;1.10;;;26.20;76.90;;;;;;5053835;28;20199;-82
2022/07/02 10:26:10;;;;;;;2.58;1.13;;;26.50;77.00;;;;;;5054007;28;20222;-82
2022/07/02 10:28:36;;;;;;;2.90;1.25;;;26.10;75.90;;;;;;5053856;28;20170;-80
2022/07/02 10:31:02;;;;;;;1.15;0.98;;;25.70;76.50;;;;;;5052935;28;20180;-80
2022/07/02 10:33:52;;;;;;;3.25;1.10;;;25.40;77.10;;;;;;5053951;28;20189;-79
2022/07/02 10:36:20;;;;;;;3.88;1.48;;;25.10;80.00;;;;;;5053950;28;20503;-82
2022/07/02 10:38:56;;;;;;;1.88;1.20;;;25.60;76.90;;;;;;5053661;28;20169;-82
2022/07/02 10:41:29;;;;;;;4.68;1.25;;;25.10;77.40;;;;;;5052882;28;20172;-80
2022/07/02 10:43:56;;;;;;;5.38;1.27;;;25.00;79.20;;;;;;5053826;28;20719;-80
2022/07/02 10:46:26;;;;;;;2.67;1.33;;;25.90;79.50;;;;;;5053404;28;20207;-83
2022/07/02 10:48:54;;;;;;;3.70;1.45;;;27.10;78.00;;;;;;5053199;28;20252;-82
2022/07/02 10:51:24;;;;;;;1.83;1.10;;;27.40;76.50;;;;;;5053144;28;20726;-81
2022/07/02 10:53:51;;;;;;;4.18;1.00;;;27.30;76.70;;;;;;5053649;28;20189;-82
2022/07/02 10:56:17;;;;;;;6.90;1.30;;;26.10;77.20;;;;;;5054603;28;20279;-80
2022/07/02 10:58:43;;;;;;;5.25;1.10;;;25.50;77.00;;;;;;5053370;28;20189;-82
2022/07/02 11:01:10;;;;;;;5.22;1.50;;;26.00;78.30;;;;;;5053093;28;20188;-81
2022/07/02 11:03:37;;;;;;;4.97;1.20;;;26.80;75.30;;;;;;5053540;28;20197;-79
2022/07/02 11:06:05;;;;;;;1.38;1.27;;;27.20;78.60;;;;;;5052771;28;20197;-79
2022/07/02 11:08:40;;;;;;;4.13;1.02;;;27.20;77.50;;;;;;5052976;28;20166;-78
2022/07/02 11:11:06;;;;;;;3.30;0.90;;;26.60;74.70;;;;;;5052762;28;20176;-79
2022/07/02 11:13:44;;;;;;;2.20;1.10;;;26.30;75.30;;;;;;5053022;28;20267;-79
2022/07/02 11:16:42;;;;;;;4.55;1.10;;;26.70;74.60;;;;;;5053067;28;20173;-78
2022/07/02 11:19:19;;;;;;;3.10;1.10;;;26.80;76.00;;;;;;5036120;28;20530;-78
2022/07/02 11:21:49;;;;;;;3.45;1.00;;;27.60;76.10;;;;;;5051433;28;20176;-78
2022/07/02 11:24:19;;;;;;;4.50;1.10;;;26.90;73.20;;;;;;5055063;28;20193;-79
2022/07/02 11:26:45;;;;;;;1.00;0.90;;;27.50;73.10;;;;;;5053584;28;20244;-80
2022/07/02 11:29:12;;;;;;;2.00;0.93;;;28.00;73.60;;;;;;5051547;28;20173;-77
2022/07/02 11:31:40;;;;;;;1.95;1.10;;;28.10;73.20;;;;;;5051519;28;20166;-77
2022/07/02 11:34:06;;;;;;;3.28;1.25;;;26.90;72.80;;;;;;5054115;28;20247;-81
2022/07/02 11:36:32;;;;;;;0.85;0.80;;;26.90;74.50;;;;;;5056481;28;20177;-81
2022/07/02 11:38:58;;;;;;;1.65;1.00;;;27.60;72.40;;;;;;5055680;28;20180;-80
2022/07/02 11:41:34;;;;;;;1.13;0.82;;;26.90;71.80;;;;;;5055139;28;20197;-80
2022/07/02 11:44:11;;;;;;;2.35;1.00;;;26.70;73.00;;;;;;5054567;28;20287;-79
2022/07/02 11:46:38;;;;;;;2.15;0.90;;;26.70;73.90;;;;;;5038043;28;20754;-80
2022/07/02 11:49:13;;;;;;;2.53;0.95;;;28.00;73.90;;;;;;5054051;28;20223;-80
2022/07/02 11:51:39;;;;;;;2.33;1.08;;;28.00;72.10;;;;;;5053047;28;20175;-80
2022/07/02 11:54:07;;;;;;;1.58;0.70;;;27.90;73.00;;;;;;5053729;28;20221;-78
2022/07/02 11:56:38;;;;;;;1.35;0.95;;;28.10;70.90;;;;;;5053107;28;20182;-80
2022/07/02 11:59:08;;;;;;;1.58;0.90;;;27.90;74.70;;;;;;5053584;28;20201;-79
2022/07/02 12:01:34;;;;;;;2.60;1.10;;;28.00;70.40;;;;;;5050445;28;20181;-78
2022/07/02 12:04:03;;;;;;;3.75;0.90;;;27.70;70.70;;;;;;5051231;28;20200;-79
2022/07/02 12:06:31;;;;;;;2.22;0.80;;;27.60;71.10;;;;;;5051308;28;20262;-78
2022/07/02 12:08:58;;;;;;;3.65;0.90;;;28.20;68.90;;;;;;5051321;28;20170;-79
2022/07/02 12:11:24;;;;;;;2.72;0.90;;;28.20;68.30;;;;;;5051541;28;20200;-78
2022/07/02 12:13:51;;;;;;;1.83;1.10;;;28.20;69.40;;;;;;5051792;28;20684;-79
2022/07/02 12:16:20;;;;;;;0.75;0.70;;;28.10;71.40;;;;;;5051992;28;20202;-79
2022/07/02 12:18:56;;;;;;;2.50;0.95;;;27.40;72.80;;;;;;5053760;28;20184;-78
2022/07/02 12:21:22;;;;;;;3.33;1.35;;;27.40;71.10;;;;;;5054879;28;20231;-78
2022/07/02 12:23:49;;;;;;;2.03;1.00;;;26.30;71.50;;;;;;5055684;28;20588;-78
2022/07/02 12:26:23;;;;;;;1.85;0.95;;;25.60;71.80;;;;;;5055081;28;20200;-77
2022/07/02 12:31:44;;;;;;;1.58;0.90;;;26.80;72.50;;;;;;5057309;28;20235;-77
2022/07/02 12:34:10;;;;;;;2.53;0.95;;;26.60;70.90;;;;;;5055852;28;20185;-79
2022/07/02 12:36:56;;;;;;;0.90;0.90;;;26.60;73.60;;;;;;5055680;28;20200;-79
2022/07/02 12:39:24;;;;;;;0.82;0.70;;;26.50;73.00;;;;;;5053553;28;20173;-79
2022/07/02 12:41:50;;;;;;;5.85;0.93;;;26.70;74.00;;;;;;5052315;28;20184;-77
2022/07/02 12:44:21;;;;;;;3.45;1.00;;;27.00;71.10;;;;;;5054045;28;20275;-78
2022/07/02 12:46:49;;;;;;;4.25;0.90;;;26.90;73.60;;;;;;5054543;28;20201;-79
2022/07/02 12:49:17;;;;;;;4.03;0.90;;;26.40;74.00;;;;;;5055029;28;20170;-79
2022/07/02 12:52:02;;;;;;;1.40;0.70;;;26.60;70.30;;;;;;5055059;28;20239;-79
2022/07/02 12:54:39;;;;;;;1.95;0.82;;;26.00;73.00;;;;;;5055388;28;20664;-79
2022/07/02 12:57:18;;;;;;;2.60;1.00;;;26.10;72.50;;;;;;5054398;28;20204;-77